createdAt,value
2019-05-13T04:02:07.041Z,28.125
2019-05-13T04:05:37.980Z,28.125
2019-05-13T04:09:22.045Z,33.75
2019-05-13T04:12:44.896Z,33.75
2019-05-13T04:16:16.844Z,33.75
2019-05-13T04:19:47.032Z,39.375
2019-05-13T04:23:17.214Z,39.375
2019-05-13T04:26:47.223Z,39.375
2019-05-13T04:30:17.495Z,39.375
2019-05-13T04:33:47.460Z,45
2019-05-13T04:37:17.445Z,45
2019-05-13T04:40:47.435Z,45
2019-05-13T04:44:17.439Z,45
2019-05-13T04:47:47.554Z,45
2019-05-13T04:51:17.571Z,50.625
2019-05-13T04:54:47.539Z,50.625
2019-05-13T04:58:17.726Z,50.625
2019-05-13T05:01:55.001Z,50.625
2019-05-13T05:05:24.733Z,50.625
2019-05-13T05:08:55.697Z,50.625
2019-05-13T05:12:26.657Z,56.25
2019-05-13T05:15:56.629Z,56.25
2019-05-13T05:19:27.696Z,56.25
2019-05-13T05:22:57.680Z,56.25
2019-05-13T05:26:27.639Z,56.25
2019-05-13T05:29:57.617Z,56.25
2019-05-13T05:33:27.559Z,56.25
2019-05-13T05:36:57.653Z,61.875
2019-05-13T05:40:34.088Z,61.875
2019-05-13T05:44:03.542Z,61.875
2019-05-13T05:47:34.551Z,61.875
2019-05-13T05:51:05.708Z,61.875
2019-05-13T05:54:35.685Z,61.875
2019-05-13T05:58:05.667Z,67.5
2019-05-13T06:01:38.609Z,67.5
2019-05-13T06:05:08.599Z,84.375
2019-05-13T06:08:38.556Z,112.5
2019-05-13T06:12:11.894Z,106.875
2019-05-13T06:15:42.039Z,202.5
2019-05-13T06:19:12.166Z,123.75
2019-05-13T06:22:42.701Z,135
2019-05-13T06:26:13.553Z,168.75
2019-05-13T06:29:44.537Z,146.25
2019-05-13T06:33:15.490Z,157.5
2019-05-13T06:36:45.467Z,84.375
2019-05-13T06:40:16.660Z,106.875
2019-05-13T06:43:46.607Z,84.375
2019-05-13T06:47:16.594Z,84.375
2019-05-13T06:50:46.586Z,123.75
2019-05-13T06:54:16.552Z,118.125
2019-05-13T06:57:46.608Z,123.75
2019-05-13T07:01:16.591Z,146.25
2019-05-13T07:04:46.561Z,95.625
2019-05-13T07:08:16.537Z,106.875
2019-05-13T07:11:46.555Z,90
2019-05-13T07:15:16.659Z,106.875
2019-05-13T07:18:46.648Z,95.625
2019-05-13T07:22:17.732Z,90
2019-05-13T07:25:47.734Z,101.25
2019-05-13T07:29:18.132Z,95.625
2019-05-13T07:32:47.801Z,101.25
2019-05-13T07:36:17.774Z,135
2019-05-13T07:39:47.744Z,135
2019-05-13T07:43:17.711Z,151.875
2019-05-13T07:46:47.681Z,146.25
2019-05-13T07:50:17.814Z,101.25
2019-05-13T07:53:47.774Z,118.125
2019-05-13T07:57:21.246Z,112.5
2019-05-13T08:00:48.705Z,101.25
2019-05-13T08:04:26.523Z,101.25
2019-05-13T08:07:53.656Z,101.25
2019-05-13T08:11:25.627Z,106.875
2019-05-13T08:14:56.595Z,106.875
2019-05-13T08:18:26.564Z,106.875
2019-05-13T08:21:56.646Z,106.875
2019-05-13T08:25:26.623Z,106.875
2019-05-13T08:29:02.834Z,106.875
2019-05-13T08:32:32.539Z,112.5
2019-05-13T08:36:03.630Z,112.5
2019-05-13T08:39:38.485Z,112.5
2019-05-13T08:43:11.894Z,123.75
2019-05-13T08:46:41.362Z,123.75
2019-05-13T08:50:11.898Z,123.75
2019-05-13T08:53:42.190Z,123.75
2019-05-13T08:57:11.769Z,129.375
2019-05-13T09:00:41.401Z,135
2019-05-13T09:04:11.806Z,140.625
2019-05-13T09:07:41.306Z,157.5
2019-05-13T09:11:12.085Z,168.75
2019-05-13T09:14:42.817Z,241.875
2019-05-13T09:18:13.786Z,1006.875
2019-05-13T09:21:44.736Z,776.25
2019-05-13T09:25:15.898Z,1158.75
2019-05-13T09:28:45.882Z,1676.25
2019-05-13T09:32:15.851Z,4050
2019-05-13T09:35:49.886Z,4100.625
2019-05-13T09:39:16.780Z,4280.625
2019-05-13T09:42:52.560Z,4398.75
2019-05-13T09:46:22.511Z,4500
2019-05-13T09:49:54.234Z,4601.25
2019-05-13T09:53:23.677Z,4775.625
2019-05-13T09:56:54.893Z,4775.625
2019-05-13T10:00:25.850Z,4792.5
2019-05-13T10:03:58.800Z,5158.125
2019-05-13T10:07:31.519Z,5163.75
2019-05-13T10:10:58.730Z,5411.25
2019-05-13T10:14:28.902Z,5551.875
2019-05-13T10:18:01.102Z,5326.875
2019-05-13T10:21:28.919Z,5726.25
2019-05-13T10:24:58.930Z,5557.5
2019-05-13T10:28:28.954Z,4111.875
2019-05-13T10:31:59.031Z,3667.5
2019-05-13T10:35:29.617Z,3318.75
2019-05-13T10:39:00.852Z,3105
2019-05-13T10:42:29.007Z,303.75
2019-05-13T10:45:58.982Z,253.125
2019-05-13T10:49:28.957Z,241.875
2019-05-13T10:52:58.967Z,253.125
2019-05-13T10:56:28.917Z,703.125
2019-05-13T11:00:03.446Z,1074.375
2019-05-13T11:03:34.829Z,1102.5
2019-05-13T11:07:05.797Z,1400.625
2019-05-13T11:10:37.757Z,1451.25
2019-05-13T11:17:42.893Z,241.875
2019-05-13T11:21:14.752Z,1732.5
2019-05-13T11:24:46.717Z,2041.875
2019-05-13T11:28:16.679Z,1822.5
2019-05-13T11:31:46.662Z,2120.625
2019-05-13T11:35:18.295Z,849.375
2019-05-13T11:38:49.764Z,2283.75
2019-05-13T11:42:19.654Z,973.125
2019-05-13T11:45:50.863Z,1935
2019-05-13T11:49:19.359Z,2413.125
2019-05-13T11:52:52.392Z,675
2019-05-13T11:56:22.696Z,2475
2019-05-13T11:59:52.393Z,2508.75
2019-05-13T12:03:19.285Z,2182.5
2019-05-13T12:06:54.378Z,2531.25
2019-05-13T12:10:24.363Z,2565
2019-05-13T12:13:56.332Z,2683.125
2019-05-13T12:17:26.316Z,1721.25
2019-05-13T12:20:57.292Z,298.125
2019-05-13T12:24:27.418Z,264.375
2019-05-13T12:27:57.380Z,365.625
2019-05-13T12:31:27.362Z,258.75
2019-05-13T12:34:57.327Z,1710
2019-05-13T12:38:27.307Z,900
2019-05-13T12:41:58.422Z,675
2019-05-13T12:45:28.391Z,365.625
2019-05-13T12:48:58.373Z,343.125
2019-05-13T12:52:28.326Z,331.875
2019-05-13T12:56:03.091Z,360
2019-05-13T12:59:32.420Z,354.375
2019-05-13T13:03:03.489Z,315
2019-05-13T13:06:41.466Z,303.75
2019-05-13T13:10:08.380Z,320.625
2019-05-13T13:13:57.773Z,292.5
2019-05-13T13:17:16.386Z,281.25
2019-05-13T13:20:56.407Z,270
2019-05-13T13:24:18.359Z,270
2019-05-13T13:28:10.393Z,275.625
2019-05-13T13:31:26.798Z,270
2019-05-13T13:34:58.767Z,275.625
2019-05-13T13:38:32.607Z,270
2019-05-13T13:42:04.815Z,270
2019-05-13T13:45:33.596Z,264.375
2019-05-13T13:48:59.931Z,270
2019-05-13T13:52:33.462Z,286.875
2019-05-13T13:56:02.333Z,303.75
2019-05-13T13:59:35.840Z,331.875
2019-05-13T14:03:07.461Z,399.375
2019-05-13T14:06:32.573Z,1608.75
2019-05-13T14:10:14.528Z,489.375
2019-05-13T14:13:45.486Z,495
2019-05-13T14:17:15.470Z,500.625
2019-05-13T14:20:46.458Z,483.75
2019-05-13T14:24:16.430Z,461.25
2019-05-13T14:27:47.092Z,489.375
2019-05-13T14:31:17.076Z,489.375
2019-05-13T14:34:47.077Z,337.5
2019-05-13T14:38:17.036Z,213.75
2019-05-13T14:41:48.030Z,157.5
2019-05-13T14:45:21.227Z,123.75
2019-05-13T14:48:49.159Z,112.5
2019-05-13T14:52:19.168Z,101.25
2019-05-13T14:55:51.524Z,106.875
2019-05-13T14:59:22.018Z,129.375
2019-05-13T15:02:52.085Z,174.375
2019-05-13T15:06:24.067Z,180
2019-05-13T15:09:55.026Z,135
2019-05-13T15:13:25.042Z,106.875
2019-05-13T15:17:02.629Z,101.25
2019-05-13T15:20:32.757Z,112.5
2019-05-13T15:24:02.189Z,129.375
2019-05-13T15:27:31.739Z,180
2019-05-13T15:31:01.348Z,213.75
2019-05-13T15:34:32.300Z,230.625
2019-05-13T15:38:03.294Z,208.125
2019-05-13T15:41:33.318Z,185.625
2019-05-13T15:45:06.335Z,151.875
2019-05-13T15:48:37.412Z,163.125
2019-05-13T15:52:08.430Z,168.75
2019-05-13T15:55:38.426Z,112.5
2019-05-13T15:59:12.533Z,95.625
2019-05-13T16:02:42.116Z,123.75
2019-05-13T16:06:10.822Z,208.125
2019-05-13T16:09:38.919Z,225
2019-05-13T16:13:11.520Z,208.125
2019-05-13T16:16:41.630Z,208.125
2019-05-13T16:20:10.236Z,118.125
2019-05-13T16:23:42.309Z,202.5
2019-05-13T16:27:12.069Z,196.875
2019-05-13T16:30:43.197Z,174.375
2019-05-13T16:34:15.548Z,196.875
2019-05-13T16:37:46.900Z,241.875
2019-05-13T16:41:17.187Z,185.625
2019-05-13T16:44:47.476Z,168.75
2019-05-13T16:48:17.830Z,174.375
2019-05-13T16:51:48.121Z,140.625
2019-05-13T16:55:18.545Z,118.125
2019-05-13T16:58:48.919Z,95.625
2019-05-13T17:02:19.267Z,50.625
2019-05-13T17:05:51.342Z,39.375
2019-05-13T17:09:21.244Z,28.125
2019-05-13T17:12:52.463Z,28.125
2019-05-13T17:16:23.575Z,33.75
2019-05-13T17:19:55.892Z,39.375
2019-05-13T17:23:27.150Z,50.625
2019-05-13T17:26:57.392Z,45
2019-05-13T17:30:27.788Z,45
2019-05-13T17:33:58.124Z,45
2019-05-13T17:37:28.583Z,33.75
2019-05-13T17:41:01.897Z,33.75
2019-05-13T17:44:31.515Z,33.75
2019-05-13T17:48:01.042Z,22.5
2019-05-13T17:51:29.927Z,22.5
2019-05-13T17:55:01.258Z,28.125
2019-05-13T17:58:32.745Z,33.75
2019-05-13T18:02:04.080Z,28.125
2019-05-13T18:05:35.310Z,28.125
2019-05-13T18:09:08.224Z,33.75
2019-05-13T18:14:04.357Z,33.75
2019-05-13T18:17:35.431Z,28.125
2019-05-13T18:21:07.528Z,22.5
2019-05-13T18:24:39.376Z,22.5
2019-05-13T18:28:23.742Z,16.875
2019-05-13T18:31:43.983Z,16.875
2019-05-13T18:35:07.386Z,11.25
2019-05-13T18:40:27.114Z,11.25
2019-05-13T18:45:41.909Z,5.625
2019-05-13T18:51:01.272Z,5.625
2019-05-13T18:54:31.523Z,5.625
2019-05-13T18:58:01.915Z,5.625
2019-05-13T19:01:33.142Z,0
2019-05-13T19:05:04.305Z,0
2019-05-13T19:08:35.504Z,0
2019-05-13T19:12:05.727Z,0
2019-05-13T19:15:36.943Z,0
2019-05-13T19:19:15.668Z,0
2019-05-13T19:22:43.892Z,0
2019-05-13T19:26:15.066Z,0
2019-05-13T19:29:47.247Z,0
2019-05-13T19:33:18.731Z,0
2019-05-13T19:36:51.570Z,0
2019-05-13T19:40:22.247Z,0
2019-05-13T19:43:54.354Z,0
2019-05-13T19:47:25.813Z,0
2019-05-13T19:50:56.258Z,0
2019-05-13T19:54:26.641Z,0
2019-05-13T19:57:57.077Z,0
2019-05-13T20:01:27.381Z,0
2019-05-13T20:04:55.855Z,0
2019-05-13T20:08:26.331Z,0
2019-05-13T20:12:02.300Z,0
2019-05-13T20:15:33.456Z,0
2019-05-13T20:19:05.278Z,0
2019-05-13T20:22:36.509Z,0
2019-05-13T20:26:07.085Z,0
2019-05-13T20:29:38.353Z,0
2019-05-13T20:33:11.744Z,0
2019-05-13T20:36:42.211Z,0
2019-05-13T20:40:12.384Z,0
2019-05-13T20:43:44.749Z,0
2019-05-13T20:47:15.148Z,0
2019-05-13T20:50:45.580Z,0
2019-05-13T20:54:16.048Z,0
2019-05-13T20:57:46.535Z,0
2019-05-13T21:01:37.248Z,0
2019-05-13T21:05:09.478Z,0
2019-05-13T21:08:48.303Z,0
2019-05-13T21:12:18.526Z,0
2019-05-13T21:15:48.579Z,0
2019-05-13T21:19:18.652Z,0
2019-05-13T21:22:48.925Z,0
2019-05-13T21:26:22.343Z,0
2019-05-13T21:29:51.910Z,0
2019-05-13T21:33:22.202Z,0
2019-05-13T21:36:53.163Z,0
2019-05-13T21:40:24.487Z,0
2019-05-13T21:43:55.696Z,0
2019-05-13T21:47:26.057Z,0
2019-05-13T21:50:56.646Z,0
2019-05-13T21:54:26.724Z,0
2019-05-13T21:57:56.724Z,0
